sensor_id;sensor_type;location;lat;lon;timestamp;pressure;altitude;pressure_sealevel;temperature;humidity
72262;BME280;60173;52.112;8.648;2022-12-19T00:02:24;101264.84;;;-1.58;83.59
72262;BME280;60173;52.112;8.648;2022-12-19T00:04:51;101266.88;;;-1.60;83.62
72262;BME280;60173;52.112;8.648;2022-12-19T00:07:17;101264.63;;;-1.63;84.19
72262;BME280;60173;52.112;8.648;2022-12-19T00:09:43;101253.56;;;-1.60;84.15
72262;BME280;60173;52.112;8.648;2022-12-19T00:12:10;101252.94;;;-1.62;84.77
72262;BME280;60173;52.112;8.648;2022-12-19T00:14:42;101242.09;;;-1.61;85.54
72262;BME280;60173;52.112;8.648;2022-12-19T00:17:09;101244.94;;;-1.62;85.81
72262;BME280;60173;52.112;8.648;2022-12-19T00:19:35;101245.56;;;-1.67;86.16
72262;BME280;60173;52.112;8.648;2022-12-19T00:22:01;101237.81;;;-1.55;86.23
72262;BME280;60173;52.112;8.648;2022-12-19T00:24:34;101244.75;;;-1.67;86.47
72262;BME280;60173;52.112;8.648;2022-12-19T00:27:01;101240.66;;;-1.63;86.85
72262;BME280;60173;52.112;8.648;2022-12-19T00:29:27;101236.97;;;-1.62;87.19
72262;BME280;60173;52.112;8.648;2022-12-19T00:31:53;101233.31;;;-1.48;86.99
72262;BME280;60173;52.112;8.648;2022-12-19T00:34:20;101239.84;;;-1.57;86.96
72262;BME280;60173;52.112;8.648;2022-12-19T00:36:46;101230.88;;;-1.56;87.18
72262;BME280;60173;52.112;8.648;2022-12-19T00:39:13;101219.75;;;-1.66;87.48
72262;BME280;60173;52.112;8.648;2022-12-19T00:41:40;101222.00;;;-1.70;88.18
72262;BME280;60173;52.112;8.648;2022-12-19T00:44:12;101216.50;;;-1.62;87.97
72262;BME280;60173;52.112;8.648;2022-12-19T00:46:40;101211.16;;;-1.62;88.06
72262;BME280;60173;52.112;8.648;2022-12-19T00:49:07;101212.41;;;-1.57;88.26
72262;BME280;60173;52.112;8.648;2022-12-19T00:51:35;101209.09;;;-1.60;88.59
72262;BME280;60173;52.112;8.648;2022-12-19T00:54:02;101202.22;;;-1.41;87.64
72262;BME280;60173;52.112;8.648;2022-12-19T00:56:33;101195.22;;;-1.48;88.19
72262;BME280;60173;52.112;8.648;2022-12-19T00:59:03;101209.16;;;-1.46;88.29
72262;BME280;60173;52.112;8.648;2022-12-19T01:01:33;101194.84;;;-1.39;88.26
72262;BME280;60173;52.112;8.648;2022-12-19T01:04:01;101193.59;;;-1.36;88.19
72262;BME280;60173;52.112;8.648;2022-12-19T01:06:48;101181.31;;;-1.44;88.56
72262;BME280;60173;52.112;8.648;2022-12-19T01:09:14;101182.94;;;-1.36;89.26
72262;BME280;60173;52.112;8.648;2022-12-19T01:11:41;101186.88;;;-1.25;88.89
72262;BME280;60173;52.112;8.648;2022-12-19T01:14:08;101178.69;;;-1.24;88.82
72262;BME280;60173;52.112;8.648;2022-12-19T01:16:34;101170.25;;;-1.27;88.77
72262;BME280;60173;52.112;8.648;2022-12-19T01:19:01;101165.75;;;-1.20;88.82
72262;BME280;60173;52.112;8.648;2022-12-19T01:21:30;101168.84;;;-1.23;88.91
72262;BME280;60173;52.112;8.648;2022-12-19T01:23:56;101164.72;;;-1.19;88.92
72262;BME280;60173;52.112;8.648;2022-12-19T01:26:23;101164.75;;;-1.12;88.59
72262;BME280;60173;52.112;8.648;2022-12-19T01:28:49;101172.94;;;-1.14;88.79
72262;BME280;60173;52.112;8.648;2022-12-19T01:31:15;101166.16;;;-1.10;88.41
72262;BME280;60173;52.112;8.648;2022-12-19T01:33:44;101173.34;;;-1.10;88.22
72262;BME280;60173;52.112;8.648;2022-12-19T01:36:10;101170.28;;;-1.21;89.01
72262;BME280;60173;52.112;8.648;2022-12-19T01:38:37;101163.28;;;-1.22;88.98
72262;BME280;60173;52.112;8.648;2022-12-19T01:41:04;101155.91;;;-1.13;88.67
72262;BME280;60173;52.112;8.648;2022-12-19T01:43:51;101148.56;;;-1.18;88.74
72262;BME280;60173;52.112;8.648;2022-12-19T01:46:21;101142.81;;;-1.15;88.61
72262;BME280;60173;52.112;8.648;2022-12-19T01:48:52;101148.97;;;-1.14;88.59
72262;BME280;60173;52.112;8.648;2022-12-19T01:51:22;101146.50;;;-1.09;88.35
72262;BME280;60173;52.112;8.648;2022-12-19T01:53:51;101139.94;;;-1.13;89.09
72262;BME280;60173;52.112;8.648;2022-12-19T01:56:23;101144.88;;;-1.03;88.87
72262;BME280;60173;52.112;8.648;2022-12-19T01:58:53;101142.84;;;-1.01;88.81
72262;BME280;60173;52.112;8.648;2022-12-19T02:01:33;101134.59;;;-1.00;88.88
72262;BME280;60173;52.112;8.648;2022-12-19T02:04:00;101137.09;;;-0.98;89.07
72262;BME280;60173;52.112;8.648;2022-12-19T02:06:28;101130.13;;;-0.93;89.20
72262;BME280;60173;52.112;8.648;2022-12-19T02:08:55;101119.84;;;-0.89;89.18
72262;BME280;60173;52.112;8.648;2022-12-19T02:11:22;101116.97;;;-0.81;88.92
72262;BME280;60173;52.112;8.648;2022-12-19T02:13:48;101109.59;;;-0.92;89.47
72262;BME280;60173;52.112;8.648;2022-12-19T02:19:01;101115.34;;;-0.75;89.47
72262;BME280;60173;52.112;8.648;2022-12-19T02:30:13;101083.72;;;-0.72;90.67
72262;BME280;60173;52.112;8.648;2022-12-19T02:32:48;101075.50;;;-0.70;90.73
72262;BME280;60173;52.112;8.648;2022-12-19T02:35:25;101077.94;;;-0.62;90.73
72262;BME280;60173;52.112;8.648;2022-12-19T02:38:10;101071.78;;;-0.56;90.58
72262;BME280;60173;52.112;8.648;2022-12-19T02:40:48;101070.13;;;-0.50;90.52
72262;BME280;60173;52.112;8.648;2022-12-19T02:43:21;101079.56;;;-0.48;91.03
72262;BME280;60173;52.112;8.648;2022-12-19T02:45:50;101076.88;;;-0.48;90.99
72262;BME280;60173;52.112;8.648;2022-12-19T02:48:17;101076.66;;;-0.39;91.20
72262;BME280;60173;52.112;8.648;2022-12-19T02:50:46;101078.09;;;-0.37;91.39
72262;BME280;60173;52.112;8.648;2022-12-19T02:53:15;101079.03;;;-0.18;91.16
72262;BME280;60173;52.112;8.648;2022-12-19T02:58:55;101073.69;;;-0.18;90.86
72262;BME280;60173;52.112;8.648;2022-12-19T03:07:00;101061.75;;;-0.09;90.78
72262;BME280;60173;52.112;8.648;2022-12-19T03:12:08;101055.16;;;-0.06;90.78
72262;BME280;60173;52.112;8.648;2022-12-19T03:14:44;101060.53;;;-0.13;91.06
72262;BME280;60173;52.112;8.648;2022-12-19T03:17:12;101054.75;;;-0.10;91.22
72262;BME280;60173;52.112;8.648;2022-12-19T03:19:39;101060.28;;;-0.05;91.45
72262;BME280;60173;52.112;8.648;2022-12-19T03:22:06;101056.78;;;0.02;91.25
72262;BME280;60173;52.112;8.648;2022-12-19T03:24:33;101052.25;;;0.02;91.27
72262;BME280;60173;52.112;8.648;2022-12-19T03:27:08;101037.22;;;0.08;91.49
72262;BME280;60173;52.112;8.648;2022-12-19T03:29:39;101030.19;;;0.13;91.02
72262;BME280;60173;52.112;8.648;2022-12-19T03:32:11;101034.03;;;0.24;90.44
72262;BME280;60173;52.112;8.648;2022-12-19T03:34:45;101022.97;;;0.20;90.31
72262;BME280;60173;52.112;8.648;2022-12-19T03:37:17;101011.81;;;0.30;89.94
72262;BME280;60173;52.112;8.648;2022-12-19T03:39:48;101021.44;;;0.31;89.57
72262;BME280;60173;52.112;8.648;2022-12-19T03:42:17;101013.69;;;0.23;90.01
72262;BME280;60173;52.112;8.648;2022-12-19T03:44:46;101029.91;;;0.28;89.78
72262;BME280;60173;52.112;8.648;2022-12-19T03:47:36;101018.41;;;0.28;89.89
72262;BME280;60173;52.112;8.648;2022-12-19T03:50:05;101016.59;;;0.21;90.18
72262;BME280;60173;52.112;8.648;2022-12-19T03:52:38;101011.56;;;0.32;90.33
72262;BME280;60173;52.112;8.648;2022-12-19T03:55:15;101006.66;;;0.29;90.40
72262;BME280;60173;52.112;8.648;2022-12-19T03:57:53;101008.53;;;0.28;90.83
72262;BME280;60173;52.112;8.648;2022-12-19T04:00:22;100987.66;;;0.43;90.39
72262;BME280;60173;52.112;8.648;2022-12-19T04:02:53;100990.44;;;0.30;90.77
72262;BME280;60173;52.112;8.648;2022-12-19T04:05:23;100981.81;;;0.28;91.25
72262;BME280;60173;52.112;8.648;2022-12-19T04:07:53;100971.91;;;0.35;91.15
72262;BME280;60173;52.112;8.648;2022-12-19T04:10:24;100957.06;;;0.39;90.94
72262;BME280;60173;52.112;8.648;2022-12-19T04:12:58;100962.41;;;0.39;91.10
72262;BME280;60173;52.112;8.648;2022-12-19T04:18:32;100945.94;;;0.42;91.42
72262;BME280;60173;52.112;8.648;2022-12-19T04:21:07;100952.88;;;0.50;91.25
72262;BME280;60173;52.112;8.648;2022-12-19T04:23:41;100938.19;;;0.34;91.44
72262;BME280;60173;52.112;8.648;2022-12-19T04:26:10;100927.56;;;0.28;92.23
72262;BME280;60173;52.112;8.648;2022-12-19T04:28:49;100931.81;;;0.35;91.96
72262;BME280;60173;52.112;8.648;2022-12-19T04:31:19;100927.56;;;0.28;92.01
72262;BME280;60173;52.112;8.648;2022-12-19T04:33:46;100924.94;;;0.21;92.25
72262;BME280;60173;52.112;8.648;2022-12-19T04:36:12;100927.63;;;0.21;92.22
72262;BME280;60173;52.112;8.648;2022-12-19T04:38:39;100938.63;;;0.31;91.51
72262;BME280;60173;52.112;8.648;2022-12-19T04:41:05;100936.81;;;0.25;91.89
72262;BME280;60173;52.112;8.648;2022-12-19T04:43:32;100938.41;;;0.33;92.01
72262;BME280;60173;52.112;8.648;2022-12-19T04:45:58;100939.06;;;0.28;91.99
72262;BME280;60173;52.112;8.648;2022-12-19T04:48:25;100940.09;;;0.27;92.36
72262;BME280;60173;52.112;8.648;2022-12-19T04:50:51;100930.03;;;0.29;91.98
72262;BME280;60173;52.112;8.648;2022-12-19T04:53:18;100927.19;;;0.24;91.57
72262;BME280;60173;52.112;8.648;2022-12-19T04:55:44;100914.53;;;0.13;91.90
72262;BME280;60173;52.112;8.648;2022-12-19T04:58:10;100921.06;;;0.17;92.44
72262;BME280;60173;52.112;8.648;2022-12-19T05:00:37;100907.56;;;0.12;92.28
72262;BME280;60173;52.112;8.648;2022-12-19T05:03:03;100899.81;;;0.04;92.79
72262;BME280;60173;52.112;8.648;2022-12-19T05:05:30;100904.91;;;0.05;92.90
72262;BME280;60173;52.112;8.648;2022-12-19T05:07:56;100897.63;;;0.19;92.29
72262;BME280;60173;52.112;8.648;2022-12-19T05:10:23;100887.13;;;0.24;91.47
72262;BME280;60173;52.112;8.648;2022-12-19T05:12:49;100883.19;;;0.27;91.44
72262;BME280;60173;52.112;8.648;2022-12-19T05:15:15;100880.41;;;0.15;91.83
72262;BME280;60173;52.112;8.648;2022-12-19T05:17:42;100875.88;;;0.15;91.83
72262;BME280;60173;52.112;8.648;2022-12-19T05:20:09;100871.09;;;0.24;91.43
72262;BME280;60173;52.112;8.648;2022-12-19T05:22:35;100867.81;;;0.22;91.66
72262;BME280;60173;52.112;8.648;2022-12-19T05:25:01;100869.16;;;0.31;91.28
72262;BME280;60173;52.112;8.648;2022-12-19T05:27:28;100870.84;;;0.26;91.56
72262;BME280;60173;52.112;8.648;2022-12-19T05:29:54;100872.50;;;0.27;91.54
72262;BME280;60173;52.112;8.648;2022-12-19T05:32:21;100869.84;;;0.27;91.70
72262;BME280;60173;52.112;8.648;2022-12-19T05:34:47;100861.94;;;0.32;91.83
72262;BME280;60173;52.112;8.648;2022-12-19T05:37:13;100856.41;;;0.33;92.07
72262;BME280;60173;52.112;8.648;2022-12-19T05:39:40;100853.72;;;0.33;92.17
72262;BME280;60173;52.112;8.648;2022-12-19T05:42:06;100849.13;;;0.40;92.23
72262;BME280;60173;52.112;8.648;2022-12-19T05:44:37;100846.53;;;0.34;92.48
72262;BME280;60173;52.112;8.648;2022-12-19T05:47:04;100836.22;;;0.37;92.75
72262;BME280;60173;52.112;8.648;2022-12-19T05:49:30;100843.69;;;0.29;93.08
72262;BME280;60173;52.112;8.648;2022-12-19T05:51:56;100846.16;;;0.30;93.23
72262;BME280;60173;52.112;8.648;2022-12-19T05:54:24;100848.22;;;0.28;93.76
72262;BME280;60173;52.112;8.648;2022-12-19T05:56:51;100839.41;;;0.28;94.02
72262;BME280;60173;52.112;8.648;2022-12-19T05:59:17;100850.50;;;0.50;94.04
72262;BME280;60173;52.112;8.648;2022-12-19T06:01:43;100848.84;;;0.49;94.19
72262;BME280;60173;52.112;8.648;2022-12-19T06:04:10;100854.25;;;0.60;94.22
72262;BME280;60173;52.112;8.648;2022-12-19T06:06:36;100844.81;;;0.58;94.22
72262;BME280;60173;52.112;8.648;2022-12-19T06:09:02;100843.97;;;0.64;94.19
72262;BME280;60173;52.112;8.648;2022-12-19T06:11:29;100845.50;;;0.72;93.93
72262;BME280;60173;52.112;8.648;2022-12-19T06:13:55;100846.63;;;0.64;94.20
72262;BME280;60173;52.112;8.648;2022-12-19T06:16:22;100842.09;;;0.64;94.80
72262;BME280;60173;52.112;8.648;2022-12-19T06:18:49;100847.38;;;0.71;94.94
72262;BME280;60173;52.112;8.648;2022-12-19T06:21:17;100840.31;;;0.77;95.08
72262;BME280;60173;52.112;8.648;2022-12-19T06:23:45;100847.88;;;0.80;95.46
72262;BME280;60173;52.112;8.648;2022-12-19T06:26:14;100843.81;;;0.96;95.20
72262;BME280;60173;52.112;8.648;2022-12-19T06:28:46;100830.53;;;1.01;95.01
72262;BME280;60173;52.112;8.648;2022-12-19T06:31:13;100828.00;;;1.06;94.87
72262;BME280;60173;52.112;8.648;2022-12-19T06:33:40;100830.25;;;1.09;94.92
72262;BME280;60173;52.112;8.648;2022-12-19T06:36:14;100831.28;;;1.08;95.09
72262;BME280;60173;52.112;8.648;2022-12-19T06:38:41;100831.28;;;1.08;95.63
72262;BME280;60173;52.112;8.648;2022-12-19T06:41:08;100839.00;;;1.16;95.62
72262;BME280;60173;52.112;8.648;2022-12-19T06:43:35;100832.41;;;1.19;95.73
72262;BME280;60173;52.112;8.648;2022-12-19T06:46:01;100846.34;;;1.21;95.95
72262;BME280;60173;52.112;8.648;2022-12-19T06:48:28;100838.66;;;1.24;96.06
72262;BME280;60173;52.112;8.648;2022-12-19T06:50:54;100855.31;;;1.26;95.98
72262;BME280;60173;52.112;8.648;2022-12-19T06:53:21;100845.69;;;1.25;96.00
72262;BME280;60173;52.112;8.648;2022-12-19T06:55:49;100836.72;;;1.31;96.24
72262;BME280;60173;52.112;8.648;2022-12-19T06:58:17;100840.91;;;1.27;96.36
72262;BME280;60173;52.112;8.648;2022-12-19T07:00:49;100850.06;;;1.20;96.88
72262;BME280;60173;52.112;8.648;2022-12-19T07:03:20;100841.09;;;1.14;96.85
72262;BME280;60173;52.112;8.648;2022-12-19T07:05:48;100847.25;;;1.15;97.40
72262;BME280;60173;52.112;8.648;2022-12-19T07:08:15;100841.09;;;1.14;97.47
72262;BME280;60173;52.112;8.648;2022-12-19T07:10:41;100837.03;;;1.23;97.63
72262;BME280;60173;52.112;8.648;2022-12-19T07:13:08;100846.44;;;1.14;97.96
72262;BME280;60173;52.112;8.648;2022-12-19T07:15:34;100850.88;;;1.20;98.15
72262;BME280;60173;52.112;8.648;2022-12-19T07:18:03;100848.81;;;1.22;98.21
72262;BME280;60173;52.112;8.648;2022-12-19T07:20:32;100858.56;;;1.17;98.78
72262;BME280;60173;52.112;8.648;2022-12-19T07:23:00;100849.25;;;1.19;98.89
72262;BME280;60173;52.112;8.648;2022-12-19T07:25:28;100842.13;;;1.13;99.40
72262;BME280;60173;52.112;8.648;2022-12-19T07:27:55;100844.81;;;1.13;99.62
72262;BME280;60173;52.112;8.648;2022-12-19T07:30:21;100847.16;;;1.21;99.42
72262;BME280;60173;52.112;8.648;2022-12-19T07:32:48;100841.34;;;1.24;99.58
72262;BME280;60173;52.112;8.648;2022-12-19T07:35:14;100846.38;;;1.32;99.41
72262;BME280;60173;52.112;8.648;2022-12-19T07:37:40;100838.47;;;1.26;99.66
72262;BME280;60173;52.112;8.648;2022-12-19T07:40:07;100845.44;;;1.27;99.81
72262;BME280;60173;52.112;8.648;2022-12-19T07:42:34;100845.81;;;1.30;99.87
72262;BME280;60173;52.112;8.648;2022-12-19T07:45:00;100842.22;;;1.37;100.00
72262;BME280;60173;52.112;8.648;2022-12-19T07:47:26;100841.63;;;1.34;100.00
72262;BME280;60173;52.112;8.648;2022-12-19T07:49:53;100839.63;;;1.30;100.00
72262;BME280;60173;52.112;8.648;2022-12-19T07:52:19;100841.41;;;1.36;100.00
72262;BME280;60173;52.112;8.648;2022-12-19T07:54:45;100845.72;;;1.37;100.00
72262;BME280;60173;52.112;8.648;2022-12-19T07:57:12;100841.31;;;1.43;100.00
72262;BME280;60173;52.112;8.648;2022-12-19T07:59:38;100852.06;;;1.54;100.00
72262;BME280;60173;52.112;8.648;2022-12-19T08:02:05;100847.50;;;1.55;100.00
72262;BME280;60173;52.112;8.648;2022-12-19T08:04:33;100852.06;;;1.54;100.00
72262;BME280;60173;52.112;8.648;2022-12-19T08:06:59;100854.13;;;1.52;100.00
72262;BME280;60173;52.112;8.648;2022-12-19T08:09:26;100861.16;;;1.53;100.00
72262;BME280;60173;52.112;8.648;2022-12-19T08:11:53;100841.97;;;1.68;100.00
72262;BME280;60173;52.112;8.648;2022-12-19T08:14:19;100844.50;;;1.63;100.00
72262;BME280;60173;52.112;8.648;2022-12-19T08:16:46;100846.94;;;1.65;100.00
72262;BME280;60173;52.112;8.648;2022-12-19T08:19:32;100843.59;;;1.69;100.00
72262;BME280;60173;52.112;8.648;2022-12-19T08:21:58;100842.31;;;1.72;100.00
72262;BME280;60173;52.112;8.648;2022-12-19T08:24:25;100842.81;;;1.80;100.00
72262;BME280;60173;52.112;8.648;2022-12-19T08:26:51;100846.28;;;1.81;100.00
72262;BME280;60173;52.112;8.648;2022-12-19T08:29:18;100850.38;;;1.84;100.00
72262;BME280;60173;52.112;8.648;2022-12-19T08:31:44;100848.84;;;1.76;100.00
72262;BME280;60173;52.112;8.648;2022-12-19T08:34:10;100848.28;;;1.86;100.00
72262;BME280;60173;52.112;8.648;2022-12-19T08:36:37;100844.69;;;1.92;100.00
72262;BME280;60173;52.112;8.648;2022-12-19T08:39:03;100843.97;;;1.96;100.00
72262;BME280;60173;52.112;8.648;2022-12-19T08:41:29;100843.16;;;1.84;100.00
72262;BME280;60173;52.112;8.648;2022-12-19T08:43:56;100839.06;;;1.81;100.00
72262;BME280;60173;52.112;8.648;2022-12-19T08:46:23;100832.91;;;1.93;100.00
72262;BME280;60173;52.112;8.648;2022-12-19T08:48:49;100837.94;;;2.01;100.00
72262;BME280;60173;52.112;8.648;2022-12-19T08:51:16;100838.63;;;1.96;100.00
72262;BME280;60173;52.112;8.648;2022-12-19T08:53:43;100840.50;;;2.19;100.00
72262;BME280;60173;52.112;8.648;2022-12-19T08:56:16;100837.13;;;2.12;100.00
72262;BME280;60173;52.112;8.648;2022-12-19T08:58:43;100833.03;;;2.10;100.00
72262;BME280;60173;52.112;8.648;2022-12-19T09:01:12;100830.84;;;2.18;100.00
72262;BME280;60173;52.112;8.648;2022-12-19T09:03:39;100826.75;;;2.16;100.00
72262;BME280;60173;52.112;8.648;2022-12-19T09:06:26;100821.97;;;2.06;100.00
72262;BME280;60173;52.112;8.648;2022-12-19T09:08:52;100823.47;;;2.02;100.00
72262;BME280;60173;52.112;8.648;2022-12-19T09:11:25;100832.91;;;2.04;100.00
72262;BME280;60173;52.112;8.648;2022-12-19T09:13:55;100824.06;;;2.16;100.00
72262;BME280;60173;52.112;8.648;2022-12-19T09:16:23;100832.47;;;2.19;100.00
72262;BME280;60173;52.112;8.648;2022-12-19T09:18:52;100835.03;;;2.14;100.00
72262;BME280;60173;52.112;8.648;2022-12-19T09:21:21;100823.84;;;2.17;100.00
72262;BME280;60173;52.112;8.648;2022-12-19T09:23:50;100826.63;;;2.22;100.00
72262;BME280;60173;52.112;8.648;2022-12-19T09:26:17;100821.53;;;2.21;100.00
72262;BME280;60173;52.112;8.648;2022-12-19T09:28:45;100827.69;;;2.33;100.00
72262;BME280;60173;52.112;8.648;2022-12-19T09:31:14;100827.56;;;2.40;100.00
72262;BME280;60173;52.112;8.648;2022-12-19T09:33:41;100824.31;;;2.38;100.00
72262;BME280;60173;52.112;8.648;2022-12-19T09:36:18;100820.34;;;2.40;100.00
72262;BME280;60173;52.112;8.648;2022-12-19T09:38:45;100820.56;;;2.39;100.00
72262;BME280;60173;52.112;8.648;2022-12-19T09:43:45;100827.31;;;2.53;100.00
72262;BME280;60173;52.112;8.648;2022-12-19T09:46:16;100827.19;;;2.48;100.00
72262;BME280;60173;52.112;8.648;2022-12-19T09:48:47;100840.84;;;2.58;100.00
72262;BME280;60173;52.112;8.648;2022-12-19T09:51:35;100826.63;;;2.58;100.00
72262;BME280;60173;52.112;8.648;2022-12-19T09:54:12;100823.53;;;2.78;100.00
72262;BME280;60173;52.112;8.648;2022-12-19T09:56:43;100823.06;;;2.81;99.79
72262;BME280;60173;52.112;8.648;2022-12-19T10:02:38;100815.97;;;3.03;99.34
72262;BME280;60173;52.112;8.648;2022-12-19T10:05:21;100811.31;;;3.10;99.21
72262;BME280;60173;52.112;8.648;2022-12-19T10:08:17;100820.75;;;3.13;99.16
72262;BME280;60173;52.112;8.648;2022-12-19T10:10:53;100827.03;;;3.19;99.27
72262;BME280;60173;52.112;8.648;2022-12-19T10:25:22;100811.47;;;3.21;97.96
72262;BME280;60173;52.112;8.648;2022-12-19T10:28:00;100809.22;;;3.29;97.87
72262;BME280;60173;52.112;8.648;2022-12-19T10:30:42;100810.50;;;3.27;97.73
72262;BME280;60173;52.112;8.648;2022-12-19T10:33:31;100810.06;;;3.30;97.61
72262;BME280;60173;52.112;8.648;2022-12-19T10:36:03;100803.53;;;3.26;97.27
72262;BME280;60173;52.112;8.648;2022-12-19T10:38:42;100806.78;;;3.28;96.97
72262;BME280;60173;52.112;8.648;2022-12-19T10:41:23;100814.78;;;3.11;97.38
72262;BME280;60173;52.112;8.648;2022-12-19T10:46:46;100800.09;;;3.13;97.76
72262;BME280;60173;52.112;8.648;2022-12-19T10:49:19;100792.63;;;3.04;97.87
72262;BME280;60173;52.112;8.648;2022-12-19T10:51:59;100793.56;;;3.09;98.09
72262;BME280;60173;52.112;8.648;2022-12-19T11:00:04;100793.91;;;3.13;98.14
72262;BME280;60173;52.112;8.648;2022-12-19T11:02:46;100793.66;;;3.14;97.94
72262;BME280;60173;52.112;8.648;2022-12-19T11:08:00;100788.81;;;3.28;96.98
72262;BME280;60173;52.112;8.648;2022-12-19T11:10:44;100779.78;;;3.34;96.12
72262;BME280;60173;52.112;8.648;2022-12-19T11:16:22;100790.53;;;3.34;95.74
72262;BME280;60173;52.112;8.648;2022-12-19T11:19:27;100778.50;;;3.37;95.94
72262;BME280;60173;52.112;8.648;2022-12-19T11:22:21;100774.75;;;3.38;95.83
72262;BME280;60173;52.112;8.648;2022-12-19T11:25:15;100764.97;;;3.32;96.15
72262;BME280;60173;52.112;8.648;2022-12-19T11:28:19;100756.81;;;3.10;96.79
72262;BME280;60173;52.112;8.648;2022-12-19T11:34:17;100766.91;;;3.20;97.40
72262;BME280;60173;52.112;8.648;2022-12-19T11:39:51;100759.06;;;3.30;97.61
72262;BME280;60173;52.112;8.648;2022-12-19T11:45:06;100749.88;;;3.59;96.68
72262;BME280;60173;52.112;8.648;2022-12-19T11:50:32;100753.84;;;3.57;95.84
72262;BME280;60173;52.112;8.648;2022-12-19T11:58:16;100751.72;;;3.76;95.76
72262;BME280;60173;52.112;8.648;2022-12-19T12:00:50;100754.75;;;3.62;96.28
72262;BME280;60173;52.112;8.648;2022-12-19T12:06:31;100747.41;;;3.75;96.04
72262;BME280;60173;52.112;8.648;2022-12-19T12:09:16;100748.41;;;3.69;96.21
72262;BME280;60173;52.112;8.648;2022-12-19T12:12:26;100753.59;;;3.58;96.79
72262;BME280;60173;52.112;8.648;2022-12-19T12:19:04;100747.09;;;3.54;97.66
72262;BME280;60173;52.112;8.648;2022-12-19T12:22:09;100761.09;;;3.73;97.46
72262;BME280;60173;52.112;8.648;2022-12-19T12:25:28;100765.09;;;3.71;96.97
72262;BME280;60173;52.112;8.648;2022-12-19T12:31:39;100762.38;;;3.88;96.96
72262;BME280;60173;52.112;8.648;2022-12-19T12:34:47;100766.47;;;3.73;96.83
72262;BME280;60173;52.112;8.648;2022-12-19T12:37:45;100767.03;;;3.75;96.67
72262;BME280;60173;52.112;8.648;2022-12-19T12:46:03;100770.38;;;3.66;95.90
72262;BME280;60173;52.112;8.648;2022-12-19T12:48:37;100772.38;;;3.58;95.65
72262;BME280;60173;52.112;8.648;2022-12-19T12:51:08;100763.53;;;3.58;96.05
72262;BME280;60173;52.112;8.648;2022-12-19T12:53:38;100761.16;;;3.61;95.62
72262;BME280;60173;52.112;8.648;2022-12-19T12:56:08;100754.75;;;3.62;95.52
72262;BME280;60173;52.112;8.648;2022-12-19T13:01:17;100749.53;;;3.39;96.45
72262;BME280;60173;52.112;8.648;2022-12-19T13:09:16;100737.34;;;3.48;96.15
72262;BME280;60173;52.112;8.648;2022-12-19T13:17:03;100758.81;;;3.65;95.51
72262;BME280;60173;52.112;8.648;2022-12-19T13:19:32;100751.00;;;3.63;95.67
72262;BME280;60173;52.112;8.648;2022-12-19T13:24:38;100740.66;;;3.55;96.00
72262;BME280;60173;52.112;8.648;2022-12-19T13:34:59;100744.09;;;3.51;97.84
72262;BME280;60173;52.112;8.648;2022-12-19T13:41:28;100737.16;;;3.55;97.80
72262;BME280;60173;52.112;8.648;2022-12-19T13:43:58;100739.63;;;3.56;97.79
72262;BME280;60173;52.112;8.648;2022-12-19T13:46:38;100727.88;;;3.62;97.81
72262;BME280;60173;52.112;8.648;2022-12-19T13:51:59;100722.25;;;3.64;97.51
72262;BME280;60173;52.112;8.648;2022-12-19T13:54:33;100728.38;;;3.59;97.61
72262;BME280;60173;52.112;8.648;2022-12-19T13:57:01;100727.41;;;3.66;97.59
72262;BME280;60173;52.112;8.648;2022-12-19T13:59:36;100726.00;;;3.80;97.31
72262;BME280;60173;52.112;8.648;2022-12-19T14:02:15;100730.97;;;3.88;96.35
72262;BME280;60173;52.112;8.648;2022-12-19T14:04:43;100727.63;;;3.81;95.64
72262;BME280;60173;52.112;8.648;2022-12-19T14:07:39;100727.88;;;3.62;94.76
72262;BME280;60173;52.112;8.648;2022-12-19T14:10:12;100734.22;;;3.39;95.61
72262;BME280;60173;52.112;8.648;2022-12-19T14:13:02;100722.69;;;3.39;96.29
72262;BME280;60173;52.112;8.648;2022-12-19T14:15:50;100717.31;;;3.39;95.89
72262;BME280;60173;52.112;8.648;2022-12-19T14:18:21;100718.13;;;3.39;95.41
72262;BME280;60173;52.112;8.648;2022-12-19T14:26:41;100707.56;;;3.33;95.30
72262;BME280;60173;52.112;8.648;2022-12-19T14:29:32;100698.75;;;3.37;95.18
72262;BME280;60173;52.112;8.648;2022-12-19T14:32:21;100704.88;;;3.33;94.90
72262;BME280;60173;52.112;8.648;2022-12-19T14:35:13;100700.88;;;3.19;95.20
72262;BME280;60173;52.112;8.648;2022-12-19T14:38:03;100701.91;;;3.17;95.53
72262;BME280;60173;52.112;8.648;2022-12-19T14:40:50;100690.63;;;3.15;95.74
72262;BME280;60173;52.112;8.648;2022-12-19T14:43:34;100702.88;;;3.11;95.71
72262;BME280;60173;52.112;8.648;2022-12-19T14:46:22;100693.75;;;3.12;95.62
72262;BME280;60173;52.112;8.648;2022-12-19T14:49:25;100691.66;;;3.14;95.23
72262;BME280;60173;52.112;8.648;2022-12-19T14:58:09;100692.47;;;2.98;96.15
72262;BME280;60173;52.112;8.648;2022-12-19T15:00:55;100679.13;;;3.03;95.75
72262;BME280;60173;52.112;8.648;2022-12-19T15:03:41;100676.78;;;2.90;95.99
72262;BME280;60173;52.112;8.648;2022-12-19T15:06:32;100680.16;;;2.85;96.53
72262;BME280;60173;52.112;8.648;2022-12-19T15:09:20;100677.50;;;3.02;95.56
72262;BME280;60173;52.112;8.648;2022-12-19T15:12:12;100675.72;;;2.91;95.67
72262;BME280;60173;52.112;8.648;2022-12-19T15:15:17;100681.56;;;2.88;96.07
72262;BME280;60173;52.112;8.648;2022-12-19T15:17:45;100667.34;;;2.87;96.06
72262;BME280;60173;52.112;8.648;2022-12-19T15:20:13;100671.41;;;2.90;96.09
72262;BME280;60173;52.112;8.648;2022-12-19T15:22:40;100671.41;;;2.90;95.91
72262;BME280;60173;52.112;8.648;2022-12-19T15:25:14;100663.91;;;2.92;95.68
72262;BME280;60173;52.112;8.648;2022-12-19T15:28:00;100670.81;;;2.88;96.06
72262;BME280;60173;52.112;8.648;2022-12-19T15:30:28;100671.47;;;2.95;96.08
72262;BME280;60173;52.112;8.648;2022-12-19T15:32:58;100668.34;;;2.98;95.53
72262;BME280;60173;52.112;8.648;2022-12-19T15:35:24;100666.84;;;2.90;95.46